Time;durP1;ratioP1;P1;durP2;ratioP2;P2;SDS_P1;SDS_P2;PMS_P1;PMS_P2;Temp;Humidity;BMP_temperature;BMP_pressure;BME280_temperature;BME280_humidity;BME280_pressure;Samples;Min_cycle;Max_cycle;Signal;HPM_P1;HPM_P2
2022/09/20 00:01:40;;;;;;;5.43;2.85;;;;;10.10;96573.00;;;;8360900;28;20220;-72
2022/09/20 00:06:18;;;;;;;7.53;2.83;;;;;10.10;96570.00;;;;8364558;28;20266;-70
2022/09/20 00:11:00;;;;;;;4.63;2.80;;;;;10.10;96572.00;;;;8361730;28;20213;-70
2022/09/20 00:15:06;;;;;;;7.07;2.95;;;;;10.10;96573.00;;;;8360637;28;20536;-70
2022/09/20 00:19:16;;;;;;;4.97;2.83;;;;;10.10;96575.00;;;;8360952;28;20274;-70
2022/09/20 00:23:19;;;;;;;7.47;3.30;;;;;10.10;96566.00;;;;8359647;28;20274;-70
2022/09/20 00:27:54;;;;;;;10.87;3.30;;;;;10.10;96575.00;;;;8360374;28;20286;-70
2022/09/20 00:31:58;;;;;;;8.88;3.03;;;;;10.10;96569.00;;;;8359955;28;20212;-69
2022/09/20 00:36:02;;;;;;;8.85;3.00;;;;;10.10;96565.00;;;;8361070;28;20273;-70
2022/09/20 00:40:08;;;;;;;5.43;2.67;;;;;10.10;96560.00;;;;8360380;28;20303;-70
2022/09/20 00:44:41;;;;;;;7.87;2.70;;;;;10.00;96569.00;;;;8360408;28;20224;-70
2022/09/20 00:49:15;;;;;;;4.70;2.75;;;;;9.90;96569.00;;;;8359916;28;20677;-70
2022/09/20 00:53:46;;;;;;;6.57;2.63;;;;;9.90;96563.00;;;;8360012;28;20281;-70
2022/09/20 00:57:50;;;;;;;6.45;2.40;;;;;9.90;96560.00;;;;8359379;28;20225;-70
2022/09/20 01:02:30;;;;;;;4.03;2.53;;;;;10.00;96567.00;;;;8360515;28;20277;-70
2022/09/20 01:07:03;;;;;;;7.40;2.60;;;;;10.00;96569.00;;;;8360324;28;20247;-70
2022/09/20 01:11:08;;;;;;;9.38;2.92;;;;;10.00;96572.00;;;;8359930;28;20220;-70
2022/09/20 01:15:13;;;;;;;11.68;3.05;;;;;10.10;96564.00;;;;8359557;28;20244;-73
2022/09/20 01:19:47;;;;;;;7.22;2.47;;;;;10.10;96570.00;;;;8366391;28;20224;-70
2022/09/20 01:24:00;;;;;;;6.72;3.05;;;;;10.20;96573.00;;;;8365485;28;20273;-70
2022/09/20 01:28:05;;;;;;;6.75;2.80;;;;;10.20;96560.00;;;;8365982;28;20278;-70
2022/09/20 01:32:12;;;;;;;8.50;2.92;;;;;10.20;96555.00;;;;8365816;28;20315;-71
2022/09/20 01:36:43;;;;;;;6.30;2.80;;;;;10.10;96556.00;;;;8365813;28;20228;-71
2022/09/20 01:41:23;;;;;;;5.55;2.70;;;;;10.10;96562.00;;;;8365464;28;20223;-71
2022/09/20 01:45:32;;;;;;;8.40;2.50;;;;;10.10;96553.00;;;;8365809;28;20219;-72
2022/09/20 01:49:44;;;;;;;4.88;2.50;;;;;10.10;96555.00;;;;8365249;28;20304;-71
2022/09/20 01:54:21;;;;;;;7.47;2.97;;;;;10.10;96543.00;;;;8365769;28;20246;-71
2022/09/20 01:58:57;;;;;;;5.95;2.58;;;;;10.00;96551.00;;;;8364290;28;20228;-71
2022/09/20 02:04:06;;;;;;;3.03;2.55;;;;;9.90;96556.00;;;;8365059;28;20310;-72
2022/09/20 02:13:16;;;;;;;7.00;2.87;;;;;10.00;96555.00;;;;8364142;28;20284;-72
2022/09/20 02:17:49;;;;;;;8.52;2.75;;;;;10.00;96560.00;;;;8364260;28;20263;-72
2022/09/20 02:22:03;;;;;;;11.55;2.78;;;;;10.00;96560.00;;;;8363782;28;20228;-72
2022/09/20 02:26:47;;;;;;;5.70;3.05;;;;;10.00;96554.00;;;;8364726;28;20228;-72
2022/09/20 02:30:57;;;;;;;5.45;2.88;;;;;10.00;96557.00;;;;8362580;28;20730;-73
2022/09/20 02:35:15;;;;;;;5.20;2.95;;;;;10.10;96561.00;;;;8364347;28;20247;-72
2022/09/20 02:39:42;;;;;;;6.77;3.23;;;;;10.10;96559.00;;;;8364130;28;20285;-73
2022/09/20 02:43:54;;;;;;;8.32;2.97;;;;;10.00;96553.00;;;;8363267;28;20218;-73
2022/09/20 02:48:25;;;;;;;10.10;3.30;;;;;10.00;96560.00;;;;8363848;28;20221;-72
2022/09/20 02:52:36;;;;;;;7.15;2.80;;;;;9.90;96563.00;;;;8363463;28;20221;-73
2022/09/20 02:57:12;;;;;;;8.32;2.88;;;;;9.90;96558.00;;;;8363603;28;20233;-73
2022/09/20 03:01:31;;;;;;;7.15;3.03;;;;;10.00;96560.00;;;;8362423;28;20221;-73
2022/09/20 03:05:47;;;;;;;9.57;3.42;;;;;10.00;96563.00;;;;8363184;28;20635;-73
2022/09/20 03:10:19;;;;;;;13.75;4.65;;;;;9.90;96567.00;;;;8362938;28;20719;-75
2022/09/20 03:14:28;;;;;;;8.38;3.28;;;;;9.90;96572.00;;;;8362383;28;20541;-75
2022/09/20 03:19:04;;;;;;;9.33;3.80;;;;;10.00;96576.00;;;;8362867;28;20643;-76
2022/09/20 03:23:21;;;;;;;12.50;3.70;;;;;10.00;96575.00;;;;8362198;28;20232;-76
2022/09/20 03:27:50;;;;;;;10.27;3.70;;;;;10.10;96573.00;;;;8361832;28;20216;-75
2022/09/20 03:32:12;;;;;;;10.60;3.60;;;;;10.10;96575.00;;;;8361902;28;20262;-70
2022/09/20 03:36:39;;;;;;;10.73;4.07;;;;;10.00;96572.00;;;;8361822;28;20220;-74
2022/09/20 03:41:22;;;;;;;6.75;3.33;;;;;10.00;96575.00;;;;8360849;28;20216;-72
2022/09/20 03:46:02;;;;;;;9.38;3.58;;;;;10.00;96581.00;;;;8361342;28;20305;-74
2022/09/20 03:50:20;;;;;;;6.70;3.85;;;;;10.00;96575.00;;;;8361410;28;20224;-75
2022/09/20 03:54:52;;;;;;;12.48;3.72;;;;;9.90;96578.00;;;;8361970;28;20234;-77
2022/09/20 03:59:39;;;;;;;7.97;3.88;;;;;9.90;96559.00;;;;8360238;28;20239;-74
2022/09/20 04:04:07;;;;;;;11.00;4.30;;;;;9.90;96572.00;;;;8363271;28;20217;-71
2022/09/20 04:08:48;;;;;;;11.27;4.28;;;;;10.00;96566.00;;;;8359963;28;20283;-71
2022/09/20 04:13:31;;;;;;;12.27;3.85;;;;;10.00;96570.00;;;;8360982;28;20236;-72
2022/09/20 04:18:02;;;;;;;12.50;4.13;;;;;10.00;96570.00;;;;8358940;28;20614;-71
2022/09/20 04:22:08;;;;;;;14.83;4.07;;;;;10.00;96570.00;;;;8360592;28;20266;-72
2022/09/20 04:26:11;;;;;;;13.43;4.65;;;;;10.10;96573.00;;;;8346246;28;20266;-74
2022/09/20 04:30:46;;;;;;;6.57;4.00;;;;;10.10;96582.00;;;;8351077;28;20352;-71
2022/09/20 04:39:41;;;;;;;10.10;4.50;;;;;10.10;96584.00;;;;8349036;28;20598;-71
2022/09/20 04:44:34;;;;;;;15.70;5.28;;;;;10.20;96595.00;;;;8357664;28;20307;-71
2022/09/20 04:49:26;;;;;;;9.40;4.90;;;;;10.20;96593.00;;;;8360614;28;20628;-71
2022/09/20 04:54:06;;;;;;;18.20;6.65;;;;;10.20;96600.00;;;;8238750;28;20219;-71
2022/09/20 05:03:53;;;;;;;14.10;7.10;;;;;10.20;96598.00;;;;8365900;28;20573;-71
2022/09/20 05:08:38;;;;;;;21.85;7.32;;;;;10.20;96610.00;;;;8365789;28;20302;-72
2022/09/20 05:13:24;;;;;;;16.33;7.18;;;;;10.30;96611.00;;;;8363161;28;20221;-73
2022/09/20 05:18:11;;;;;;;22.77;7.18;;;;;10.20;96607.00;;;;8366367;28;20228;-73
2022/09/20 05:22:52;;;;;;;15.15;7.40;;;;;10.30;96608.00;;;;8366105;28;20232;-73
2022/09/20 05:27:28;;;;;;;19.98;6.90;;;;;10.30;96612.00;;;;8365863;28;20611;-73
2022/09/20 05:31:39;;;;;;;22.65;8.23;;;;;10.30;96617.00;;;;8365943;28;20277;-73
2022/09/20 05:36:13;;;;;;;20.85;7.68;;;;;10.40;96621.00;;;;8365547;28;20236;-72
2022/09/20 05:40:49;;;;;;;16.67;7.60;;;;;10.40;96634.00;;;;8365388;28;20282;-73
2022/09/20 05:45:22;;;;;;;17.75;8.30;;;;;10.50;96634.00;;;;8366177;28;20543;-72
2022/09/20 05:49:41;;;;;;;24.35;7.85;;;;;10.50;96640.00;;;;8365752;28;20593;-73
2022/09/20 05:54:24;;;;;;;24.80;8.80;;;;;10.50;96641.00;;;;8364650;28;20312;-73
2022/09/20 06:03:54;;;;;;;17.75;7.70;;;;;10.60;96639.00;;;;8364723;28;20553;-72
2022/09/20 06:08:34;;;;;;;11.15;6.32;;;;;10.50;96636.00;;;;8365031;28;20664;-72
2022/09/20 06:12:51;;;;;;;22.80;7.13;;;;;10.50;96642.00;;;;8364523;28;20269;-73
2022/09/20 06:17:02;;;;;;;15.15;7.90;;;;;10.70;96648.00;;;;8365535;28;20221;-72
2022/09/20 06:21:40;;;;;;;16.27;7.28;;;;;10.90;96644.00;;;;8363240;28;20226;-72
2022/09/20 06:25:49;;;;;;;15.40;6.72;;;;;10.90;96647.00;;;;8363956;28;20275;-73
2022/09/20 06:30:22;;;;;;;17.63;5.70;;;;;10.90;96646.00;;;;8361852;28;20298;-72
2022/09/20 06:34:59;;;;;;;17.80;5.50;;;;;11.10;96647.00;;;;8358677;28;20213;-72
2022/09/20 06:44:44;;;;;;;16.27;6.10;;;;;11.20;96645.00;;;;8228551;28;20562;-72
2022/09/20 06:49:21;;;;;;;9.25;4.78;;;;;11.40;96655.00;;;;8229926;28;20220;-73
2022/09/20 06:53:58;;;;;;;13.23;5.53;;;;;11.50;96659.00;;;;8352539;28;20637;-72
2022/09/20 06:58:35;;;;;;;22.67;6.32;;;;;11.70;96654.00;;;;8362657;28;20216;-73
2022/09/20 07:03:12;;;;;;;11.98;5.38;;;;;12.20;96651.00;;;;8362854;28;20704;-74
2022/09/20 07:07:56;;;;;;;14.35;4.13;;;;;12.50;96662.00;;;;8361497;28;20221;-75
2022/09/20 07:11:59;;;;;;;11.57;5.05;;;;;12.70;96658.00;;;;8361599;28;20299;-75
2022/09/20 07:16:03;;;;;;;10.52;4.22;;;;;12.50;96655.00;;;;8361990;28;20547;-75
2022/09/20 07:20:38;;;;;;;15.30;3.53;;;;;12.30;96657.00;;;;8361431;28;20601;-75
2022/09/20 07:24:43;;;;;;;9.32;3.28;;;;;12.30;96651.00;;;;8360761;28;20551;-75
2022/09/20 07:29:17;;;;;;;8.52;3.70;;;;;12.10;96656.00;;;;8360970;28;20305;-76
2022/09/20 07:33:54;;;;;;;8.90;4.45;;;;;12.00;96663.00;;;;8355876;28;20222;-75
2022/09/20 07:38:31;;;;;;;11.90;4.68;;;;;12.10;96671.00;;;;8361030;28;20651;-71
2022/09/20 07:43:10;;;;;;;14.52;5.22;;;;;12.20;96680.00;;;;8360572;28;20281;-71
2022/09/20 07:47:14;;;;;;;14.80;5.15;;;;;12.20;96678.00;;;;8360887;28;20697;-70
2022/09/20 07:51:43;;;;;;;13.20;3.95;;;;;12.30;96680.00;;;;8359443;28;20314;-71
2022/09/20 07:56:21;;;;;;;8.07;3.55;;;;;12.50;96685.00;;;;8360871;28;20256;-71
2022/09/20 08:00:59;;;;;;;14.20;4.50;;;;;12.70;96691.00;;;;8357824;28;20226;-70
2022/09/20 08:05:34;;;;;;;13.55;3.75;;;;;12.80;96697.00;;;;8361449;28;20216;-71
2022/09/20 08:10:08;;;;;;;8.82;3.80;;;;;12.90;96692.00;;;;8361360;28;20672;-70
2022/09/20 08:14:45;;;;;;;11.63;3.70;;;;;12.80;96699.00;;;;8360414;28;20226;-70
2022/09/20 08:18:51;;;;;;;12.18;3.22;;;;;12.90;96710.00;;;;8360331;28;20278;-70
2022/09/20 08:23:25;;;;;;;8.48;3.00;;;;;13.30;96705.00;;;;8359917;28;20220;-71
2022/09/20 08:28:03;;;;;;;9.77;3.05;;;;;13.30;96712.00;;;;8359412;28;20315;-70
2022/09/20 17:28:52;;;;;;;1.30;1.30;;;;;11.70;96808.00;;;;8393869;28;20227;-68
2022/09/20 17:33:02;;;;;;;3.63;1.50;;;;;11.70;96826.00;;;;8383719;28;20214;-68
2022/09/20 17:37:05;;;;;;;1.65;1.42;;;;;11.60;96838.00;;;;8393582;28;20691;-68
2022/09/20 17:41:17;;;;;;;3.17;2.42;;;;;11.60;96843.00;;;;8393869;28;20220;-68
2022/09/20 17:45:27;;;;;;;4.47;1.75;;;;;11.50;96847.00;;;;8393078;28;20257;-67
2022/09/20 17:49:30;;;;;;;3.05;2.08;;;;;11.40;96853.00;;;;8394018;28;20250;-67
2022/09/20 17:53:40;;;;;;;3.58;2.42;;;;;11.30;96858.00;;;;8383078;28;20219;-67
2022/09/20 17:57:53;;;;;;;7.85;3.67;;;;;11.20;96858.00;;;;8393889;28;20277;-67
2022/09/20 18:02:03;;;;;;;3.83;2.00;;;;;11.10;96863.00;;;;8399936;28;20368;-67
2022/09/20 18:06:14;;;;;;;2.08;1.70;;;;;11.00;96870.00;;;;8396938;28;20234;-67
2022/09/20 18:10:27;;;;;;;2.17;1.88;;;;;10.80;96868.00;;;;8398968;28;20645;-67
2022/09/20 18:14:37;;;;;;;1.58;1.50;;;;;10.60;96876.00;;;;8398974;28;20592;-67
2022/09/20 18:18:50;;;;;;;2.55;1.67;;;;;10.50;96874.00;;;;8399628;28;20216;-67
2022/09/20 18:22:53;;;;;;;3.25;2.38;;;;;10.40;96875.00;;;;8397223;28;20323;-66
2022/09/20 18:27:03;;;;;;;5.85;3.17;;;;;10.20;96886.00;;;;8396861;28;20660;-67
2022/09/20 18:31:13;;;;;;;6.93;5.18;;;;;10.10;96890.00;;;;8397816;28;20224;-66
2022/09/20 18:35:26;;;;;;;12.32;8.48;;;;;10.00;96902.00;;;;8397657;28;20220;-67
2022/09/20 18:39:36;;;;;;;5.30;3.00;;;;;9.90;96900.00;;;;8397581;28;20228;-67
2022/09/20 18:43:46;;;;;;;4.68;3.40;;;;;9.90;96902.00;;;;8376405;28;20220;-67
2022/09/20 18:47:57;;;;;;;4.35;2.80;;;;;9.80;96901.00;;;;8397764;28;20224;-67
2022/09/20 18:52:11;;;;;;;6.18;3.70;;;;;9.80;96910.00;;;;8397885;28;20611;-67
2022/09/20 18:56:23;;;;;;;3.90;2.22;;;;;9.70;96915.00;;;;8395031;28;20223;-67
2022/09/20 19:00:33;;;;;;;2.75;2.30;;;;;9.60;96914.00;;;;8395356;28;20281;-66
2022/09/20 19:04:57;;;;;;;3.10;2.80;;;;;9.50;96911.00;;;;8396526;28;20649;-67
2022/09/20 19:09:15;;;;;;;2.85;2.60;;;;;9.40;96916.00;;;;8395884;28;20220;-67
2022/09/20 19:13:28;;;;;;;27.17;2.28;;;;;9.30;96925.00;;;;8396071;28;20547;-67
2022/09/20 19:17:52;;;;;;;3.17;2.65;;;;;9.10;96930.00;;;;8396597;28;20227;-67
2022/09/20 19:22:13;;;;;;;6.68;2.30;;;;;9.00;96926.00;;;;8396501;28;20221;-67
2022/09/20 19:26:24;;;;;;;3.50;2.57;;;;;8.80;96933.00;;;;8396118;28;20621;-67
2022/09/20 19:30:42;;;;;;;3.55;2.85;;;;;8.60;96936.00;;;;8393745;28;20227;-67
2022/09/20 19:34:54;;;;;;;5.45;3.35;;;;;8.40;96940.00;;;;8393363;28;20273;-71
2022/09/20 19:39:08;;;;;;;7.63;3.75;;;;;8.30;96939.00;;;;8395210;28;20219;-71
2022/09/20 19:43:36;;;;;;;3.35;3.05;;;;;8.20;96940.00;;;;8367332;28;20522;-71
2022/09/20 19:47:50;;;;;;;8.00;3.63;;;;;8.00;96932.00;;;;8393883;28;20538;-71
2022/09/20 19:52:03;;;;;;;6.00;3.70;;;;;7.90;96950.00;;;;8395495;28;20265;-72
2022/09/20 19:56:23;;;;;;;6.33;4.00;;;;;7.80;96942.00;;;;8392815;28;20234;-72
2022/09/20 20:00:35;;;;;;;8.17;4.90;;;;;7.70;96947.00;;;;8394660;28;20223;-69
2022/09/20 20:04:45;;;;;;;5.13;4.03;;;;;7.60;96945.00;;;;8391933;28;20224;-70
2022/09/20 20:08:54;;;;;;;5.40;4.07;;;;;7.60;96949.00;;;;8394310;28;20215;-70
2022/09/20 20:14:01;;;;;;;11.73;4.88;;;;;7.50;96956.00;;;;8381128;28;20236;-71
2022/09/20 20:17:54;;;;;;;12.30;5.33;;;;;7.40;96954.00;;;;8393493;28;20224;-72
2022/09/20 20:22:11;;;;;;;7.70;5.17;;;;;7.30;96963.00;;;;8394676;28;20220;-70
2022/09/20 20:26:22;;;;;;;8.33;4.80;;;;;7.20;96978.00;;;;8393680;28;20654;-70
2022/09/20 20:30:26;;;;;;;7.90;4.30;;;;;7.10;96980.00;;;;8393716;28;20235;-71
2022/09/20 20:34:44;;;;;;;7.03;4.55;;;;;7.10;96982.00;;;;8393701;28;20723;-70
2022/09/20 20:38:54;;;;;;;4.57;3.63;;;;;7.00;96976.00;;;;8394287;28;20212;-69
2022/09/20 20:43:00;;;;;;;5.87;3.20;;;;;7.00;96980.00;;;;8393644;28;20219;-69
2022/09/20 20:47:10;;;;;;;6.80;3.90;;;;;7.00;96975.00;;;;8392794;28;20638;-71
2022/09/20 20:51:22;;;;;;;9.33;4.63;;;;;6.90;96987.00;;;;8393929;28;20223;-69
2022/09/20 20:55:32;;;;;;;7.97;4.53;;;;;6.90;96986.00;;;;8393062;28;20653;-69
2022/09/20 20:59:42;;;;;;;7.00;4.60;;;;;6.90;96987.00;;;;8393310;28;20220;-70
2022/09/20 21:03:53;;;;;;;8.70;4.50;;;;;7.00;96991.00;;;;8393409;28;20228;-70
2022/09/20 21:08:04;;;;;;;4.87;3.63;;;;;7.00;96988.00;;;;8392363;28;20676;-70
2022/09/20 21:12:08;;;;;;;9.67;3.57;;;;;6.90;96988.00;;;;8393500;28;20261;-70
2022/09/20 21:16:20;;;;;;;5.20;3.60;;;;;6.80;96997.00;;;;8392378;28;20219;-70
2022/09/20 21:20:24;;;;;;;5.80;3.90;;;;;6.80;96988.00;;;;8393382;28;20228;-70
2022/09/20 21:24:35;;;;;;;5.20;3.23;;;;;6.70;96987.00;;;;8392216;28;20219;-70
2022/09/20 21:28:47;;;;;;;6.97;3.93;;;;;6.60;96978.00;;;;8393103;28;20228;-70
2022/09/20 21:33:04;;;;;;;4.37;3.50;;;;;6.50;97000.00;;;;8392354;28;20224;-70
2022/09/20 21:37:14;;;;;;;6.93;3.60;;;;;6.40;97001.00;;;;8398393;28;20232;-70
2022/09/20 21:41:28;;;;;;;8.77;3.67;;;;;6.30;97011.00;;;;8399120;28;20234;-70
2022/09/20 21:45:39;;;;;;;7.73;3.33;;;;;6.20;96996.00;;;;8397978;28;20220;-70
2022/09/20 21:49:49;;;;;;;8.20;3.83;;;;;6.10;97001.00;;;;8380348;28;20246;-70
2022/09/20 21:54:00;;;;;;;7.00;4.10;;;;;6.00;97004.00;;;;8391253;28;22053;-70
2022/09/20 21:58:12;;;;;;;5.87;3.70;;;;;6.00;97007.00;;;;8397410;28;20246;-71
2022/09/20 22:02:22;;;;;;;5.53;3.33;;;;;5.90;97007.00;;;;8398115;28;20331;-70
2022/09/20 22:06:34;;;;;;;4.77;3.60;;;;;5.80;97015.00;;;;8396859;28;20223;-70
2022/09/20 22:10:54;;;;;;;7.07;3.87;;;;;5.70;97016.00;;;;8398543;28;20568;-70
2022/09/20 22:15:06;;;;;;;6.73;4.33;;;;;5.60;97010.00;;;;8385086;28;20231;-70
2022/09/20 22:19:19;;;;;;;6.67;3.43;;;;;5.60;97006.00;;;;8397588;28;20224;-69
2022/09/20 22:23:29;;;;;;;5.90;3.30;;;;;5.60;97001.00;;;;8397077;28;20274;-69
2022/09/20 22:27:32;;;;;;;4.60;3.23;;;;;5.50;96993.00;;;;8397320;28;20223;-69
2022/09/20 22:31:52;;;;;;;4.70;2.90;;;;;5.50;97011.00;;;;8369356;28;20237;-69
2022/09/20 22:36:02;;;;;;;6.00;3.90;;;;;5.50;97016.00;;;;8363995;28;20221;-69
2022/09/20 22:40:12;;;;;;;5.83;3.50;;;;;5.50;97014.00;;;;8364978;28;20693;-70
2022/09/20 22:44:22;;;;;;;10.20;3.57;;;;;5.40;97011.00;;;;8349292;28;20259;-70
2022/09/20 22:48:34;;;;;;;9.87;3.23;;;;;5.30;97018.00;;;;8362557;28;20243;-70
2022/09/20 22:52:44;;;;;;;4.97;3.57;;;;;5.30;97003.00;;;;8363252;28;20224;-70
2022/09/20 22:56:54;;;;;;;7.10;3.50;;;;;5.30;97008.00;;;;8363576;28;20227;-70
2022/09/20 23:01:09;;;;;;;5.53;3.27;;;;;5.20;97015.00;;;;8363061;28;20244;-70
2022/09/20 23:05:21;;;;;;;6.00;3.33;;;;;5.20;97017.00;;;;8363295;28;20227;-70
2022/09/20 23:09:31;;;;;;;5.60;3.10;;;;;5.10;97022.00;;;;8363324;28;20232;-69
2022/09/20 23:13:41;;;;;;;3.47;2.77;;;;;5.10;97014.00;;;;8349464;28;20227;-70
2022/09/20 23:17:51;;;;;;;6.73;3.30;;;;;5.00;97016.00;;;;8363319;28;20225;-69
2022/09/20 23:22:02;;;;;;;5.33;3.43;;;;;5.00;97021.00;;;;8362113;28;20228;-69
2022/09/20 23:26:14;;;;;;;4.63;3.33;;;;;5.00;97025.00;;;;8362028;28;20240;-70
2022/09/20 23:30:18;;;;;;;6.83;3.10;;;;;5.00;97026.00;;;;8363527;28;20251;-69
2022/09/20 23:34:34;;;;;;;3.60;3.27;;;;;4.90;97016.00;;;;8349334;28;20231;-69
2022/09/20 23:38:46;;;;;;;6.20;3.60;;;;;4.90;97018.00;;;;8362157;28;20547;-69
2022/09/20 23:42:49;;;;;;;5.00;3.00;;;;;4.90;97016.00;;;;8361970;28;20586;-70
2022/09/20 23:46:59;;;;;;;10.43;3.33;;;;;4.80;97012.00;;;;8361951;28;20228;-70
2022/09/20 23:51:10;;;;;;;5.67;3.80;;;;;4.80;97016.00;;;;8361848;28;20278;-70
2022/09/20 23:55:21;;;;;;;5.20;3.17;;;;;4.70;97022.00;;;;8361644;28;20216;-70
2022/09/20 23:59:32;;;;;;;5.03;3.13;;;;;4.70;97017.00;;;;8361306;28;20226;-70
